Flight Number: AVA6120 Duration: 8:30
Departure: Dubai Intl Airport (OMDB) at 13:30 Distance: 4055 Nm
Arrival: Bali Intl (WADD) at 22:00 Equipment: B747

Weather Information
Dubai International Airport, United Arab Emirates (OMDB) 25-15N 055-20E 5M Feb 19, 2020 - 01:00 AM EST / 2020.02.19 0600 UTC
Wind: from the NE (050 degrees) at 5 MPH (4 KT) (direction variable):0
Visibility: 4 mile(s):0 Temperature: 75 F (24 C) Dew Point: 50 F (10 C) Relative Humidity: 41% Pressure (altimeter): 30.03 in. Hg (1017 hPa)
ob: OMDB 190600Z 05004KT 360V120 8000 NSC 24/10 Q1017 NOSIG cycle: 6
Sunrise: 02:52 Sunset: 14:12 (UTC)

Station name not available Feb 19, 2020 - 01:00 AM EST / 2020.02.19 0600 UTC
Wind: from the W (270 degrees) at 10 MPH (9 KT):0
Visibility: greater than 7 mile(s):0
Sky conditions: mostly clear Temperature: 87 F (31 C) Heat index: 99.7 F (37.6 C):1 Dew Point: 78 F (26 C) Relative Humidity: 74% Pressure (altimeter): 29.77 in. Hg (1008 hPa)
ob: WADD 190600Z 27009KT 9999 FEW017 31/26 Q1008 NOSIG cycle: 6
Sunrise: 22:24 Sunset: 10:41 (UTC)

TAF:2020/02/19 06:09 TAF WADD 190500Z 1906/2006 28010KT 9999 FEW016CB SCT016 BECMG 1910/1912 VRB05KT TEMPO 1911/1915 6000 -TSRA FEW015CB BKN016 BECMG 1923/2001 28010KT

This route has never been flown.

Route map